Time;durP1;ratioP1;P1;durP2;ratioP2;P2;SDS_P1;SDS_P2;PMS_P1;PMS_P2;Temp;Humidity;BMP_temperature;BMP_pressure;BME280_temperature;BME280_humidity;BME280_pressure;Samples;Min_cycle;Max_cycle;Signal;HPM_P1;HPM_P2
2023/05/25 00:00:37;;;;;;;13.48;6.30;;;;;;;13.61;61.29;102442.50;5008248;28;20034;-65
2023/05/25 00:03:02;;;;;;;14.63;5.75;;;;;;;13.64;61.23;102445.66;5010196;28;20077;-65
2023/05/25 00:05:28;;;;;;;20.40;6.65;;;;;;;13.59;61.27;102451.09;5009942;28;20029;-64
2023/05/25 00:07:57;;;;;;;14.52;6.15;;;;;;;13.56;60.96;102459.06;5009465;28;20401;-65
2023/05/25 00:10:22;;;;;;;14.40;5.95;;;;;;;13.53;61.20;102453.97;5009855;28;20480;-65
2023/05/25 00:12:47;;;;;;;15.65;6.47;;;;;;;13.55;61.25;102446.22;5012685;28;20049;-65
2023/05/25 00:15:12;;;;;;;15.23;6.20;;;;;;;13.54;61.26;102448.16;5020153;28;20026;-65
2023/05/25 00:17:39;;;;;;;13.43;6.18;;;;;;;13.51;61.49;102451.41;4989806;28;1049372;-65
2023/05/25 00:20:08;;;;;;;12.30;6.18;;;;;;;13.50;61.25;102452.50;5019923;28;20042;-64
2023/05/25 00:22:37;;;;;;;15.23;6.30;;;;;;;13.43;61.49;102447.00;5021894;28;20037;-64
2023/05/25 00:25:05;;;;;;;12.88;6.07;;;;;;;13.42;61.25;102448.09;5011021;28;20449;-65
2023/05/25 00:27:30;;;;;;;15.60;5.72;;;;;;;13.41;61.33;102456.69;5010419;28;20117;-64
2023/05/25 00:29:56;;;;;;;13.98;5.72;;;;;;;13.48;61.48;102454.69;5011549;28;20036;-64
2023/05/25 00:32:21;;;;;;;16.40;6.50;;;;;;;13.39;61.63;102451.34;5030590;28;20079;-65
2023/05/25 00:34:46;;;;;;;13.30;6.57;;;;;;;13.39;61.41;102458.84;5029300;28;20100;-65
2023/05/25 00:37:12;;;;;;;12.80;5.93;;;;;;;13.35;61.41;102449.25;5009466;28;20385;-65
2023/05/25 00:39:37;;;;;;;12.77;5.90;;;;;;;13.35;61.33;102455.69;5018361;28;20030;-65
2023/05/25 00:42:05;;;;;;;15.20;6.25;;;;;;;13.30;61.19;102457.47;5030115;28;20034;-64
2023/05/25 00:44:31;;;;;;;12.27;6.38;;;;;;;13.36;61.18;102462.09;5029815;28;20029;-65
2023/05/25 00:46:56;;;;;;;13.38;6.07;;;;;;;13.43;60.92;102463.72;5029009;28;20040;-64
2023/05/25 00:49:22;;;;;;;11.50;5.20;;;;;;;13.38;60.80;102458.00;5013290;28;20079;-65
2023/05/25 00:51:47;;;;;;;11.95;5.38;;;;;;;13.38;60.78;102457.16;5012315;28;20025;-65
2023/05/25 00:54:14;;;;;;;11.32;5.72;;;;;;;13.34;61.05;102451.19;5021187;28;20389;-65
2023/05/25 00:56:44;;;;;;;13.38;6.18;;;;;;;13.26;60.79;102454.28;5012155;28;20084;-64
2023/05/25 00:59:14;;;;;;;11.10;5.85;;;;;;;13.28;60.99;102457.69;5010234;28;20493;-65
2023/05/25 01:01:39;;;;;;;13.57;5.63;;;;;;;13.23;60.71;102463.13;5023064;28;20500;-65
2023/05/25 01:04:08;;;;;;;12.00;5.65;;;;;;;13.16;61.08;102456.72;5029529;28;20026;-65
2023/05/25 01:06:36;;;;;;;11.20;5.65;;;;;;;13.16;60.86;102457.56;5023421;28;20037;-64
2023/05/25 01:09:04;;;;;;;13.20;5.80;;;;;;;13.16;61.13;102460.34;5018664;28;20386;-65
2023/05/25 01:11:41;;;;;;;11.32;5.63;;;;;;;13.15;61.00;102468.97;5015305;28;20026;-65
2023/05/25 01:14:07;;;;;;;13.43;5.63;;;;;;;13.09;61.43;102464.34;5026930;28;20045;-65
2023/05/25 01:16:34;;;;;;;13.25;5.97;;;;;;;13.03;61.29;102464.16;5021252;28;20046;-65
2023/05/25 01:19:00;;;;;;;12.75;5.57;;;;;;;13.03;61.12;102466.94;5012459;28;20778;-65
2023/05/25 01:21:36;;;;;;;11.27;5.28;;;;;;;13.13;60.82;102465.56;5013557;28;20040;-65
2023/05/25 01:24:16;;;;;;;12.13;6.22;;;;;;;13.13;61.05;102474.78;5013357;28;20084;-64
2023/05/25 01:26:47;;;;;;;10.82;5.05;;;;;;;13.11;60.74;102468.56;5022911;28;20100;-64
2023/05/25 01:29:14;;;;;;;12.70;5.63;;;;;;;13.05;61.24;102474.19;5032506;28;20748;-64
2023/05/25 01:31:40;;;;;;;11.82;5.53;;;;;;;13.05;60.97;102472.28;5021114;28;20022;-65
2023/05/25 01:34:06;;;;;;;10.38;5.32;;;;;;;13.03;61.05;102480.03;5016893;28;20540;-64
2023/05/25 01:36:32;;;;;;;13.38;5.53;;;;;;;12.99;60.90;102485.19;5029182;28;20156;-63
2023/05/25 01:38:57;;;;;;;14.88;5.90;;;;;;;13.07;60.79;102486.00;5012483;28;20061;-63
2023/05/25 01:41:23;;;;;;;13.45;5.88;;;;;;;13.07;61.20;102484.06;5013137;28;20359;-63
2023/05/25 01:43:48;;;;;;;9.73;5.28;;;;;;;13.00;61.30;102484.09;5014516;28;20026;-64
2023/05/25 01:46:21;;;;;;;12.80;6.00;;;;;;;12.95;61.22;102477.53;5029448;28;20028;-64
2023/05/25 01:49:02;;;;;;;12.00;5.93;;;;;;;12.99;61.21;102485.19;5033361;28;20030;-64
2023/05/25 01:52:11;;;;;;;11.65;5.90;;;;;;;13.01;61.19;102488.63;5012373;28;20080;-64
2023/05/25 01:54:41;;;;;;;11.82;5.53;;;;;;;12.90;61.50;102481.00;5014992;28;20038;-64
2023/05/25 01:57:11;;;;;;;11.20;5.22;;;;;;;12.94;61.07;102484.19;5012812;28;20096;-64
2023/05/25 01:59:37;;;;;;;12.85;5.90;;;;;;;12.91;61.25;102491.06;5008484;28;20033;-64
2023/05/25 02:02:04;;;;;;;13.52;5.97;;;;;;;12.89;61.22;102486.78;5016505;28;20527;-64
2023/05/25 02:04:30;;;;;;;12.63;6.05;;;;;;;12.88;61.45;102487.88;5029782;28;20036;-64
2023/05/25 02:06:55;;;;;;;13.18;5.97;;;;;;;12.79;61.24;102492.91;5028028;28;20390;-64
2023/05/25 02:09:21;;;;;;;9.38;4.82;;;;;;;12.77;61.31;102493.16;5012509;28;20029;-64
2023/05/25 02:11:46;;;;;;;10.63;5.53;;;;;;;12.73;61.36;102491.91;5012795;28;20482;-64
2023/05/25 02:14:12;;;;;;;11.07;5.55;;;;;;;12.73;61.04;102488.22;5013219;28;20469;-64
2023/05/25 02:16:37;;;;;;;12.10;6.15;;;;;;;12.66;60.88;102487.47;5028243;28;20434;-65
2023/05/25 02:19:02;;;;;;;11.82;5.65;;;;;;;12.68;60.91;102479.72;5022663;28;20040;-65
2023/05/25 02:21:28;;;;;;;12.90;5.97;;;;;;;12.59;61.49;102489.44;5031137;28;20029;-65
2023/05/25 02:23:53;;;;;;;6.75;5.28;;;;;;;12.54;61.23;102484.56;5029455;28;20033;-64
2023/05/25 02:26:19;;;;;;;10.38;5.93;;;;;;;12.54;61.54;102481.78;5032064;28;20473;-64
2023/05/25 02:28:44;;;;;;;11.20;5.57;;;;;;;12.49;61.51;102489.94;5024088;28;20033;-64
2023/05/25 02:31:10;;;;;;;9.95;5.57;;;;;;;12.47;61.81;102481.81;5021250;28;20034;-64
2023/05/25 02:33:35;;;;;;;10.45;5.38;;;;;;;12.48;61.38;102486.28;5016313;28;20538;-64
2023/05/25 02:36:00;;;;;;;10.38;5.72;;;;;;;12.39;61.79;102478.47;5015395;28;20040;-64
2023/05/25 02:38:26;;;;;;;7.82;4.82;;;;;;;12.36;61.64;102479.75;5026617;28;20129;-64
2023/05/25 02:40:51;;;;;;;12.68;5.75;;;;;;;12.34;61.45;102481.94;5011465;28;20030;-64
2023/05/25 02:43:16;;;;;;;14.60;5.55;;;;;;;12.38;62.12;102485.97;5010570;28;20030;-64
2023/05/25 02:45:42;;;;;;;10.48;5.85;;;;;;;12.34;61.58;102486.59;5013412;28;20791;-64
2023/05/25 02:48:07;;;;;;;12.68;6.15;;;;;;;12.35;62.08;102491.97;5011425;28;20026;-64
2023/05/25 02:50:32;;;;;;;9.90;5.60;;;;;;;12.26;62.25;102494.19;5010336;28;20476;-64
2023/05/25 02:52:57;;;;;;;10.85;5.97;;;;;;;12.31;61.73;102489.88;5014908;28;20162;-64
2023/05/25 02:55:24;;;;;;;12.75;5.80;;;;;;;12.22;61.99;102490.13;5015696;28;20064;-65
2023/05/25 02:57:50;;;;;;;13.25;6.35;;;;;;;12.23;62.28;102485.41;5012434;28;20057;-64
2023/05/25 03:00:16;;;;;;;12.02;6.35;;;;;;;12.24;62.42;102492.69;5020387;28;20029;-63
2023/05/25 03:02:41;;;;;;;12.45;6.85;;;;;;;12.17;62.34;102480.75;5012447;28;20026;-63
2023/05/25 03:05:07;;;;;;;11.60;7.43;;;;;;;12.15;62.37;102480.97;5026988;28;20049;-64
2023/05/25 03:07:33;;;;;;;11.90;6.18;;;;;;;12.16;62.45;102484.59;5013420;28;20044;-63
2023/05/25 03:09:58;;;;;;;11.27;7.20;;;;;;;12.17;61.93;102487.16;5007286;28;20539;-65
2023/05/25 03:12:23;;;;;;;15.02;7.85;;;;;;;12.07;62.33;102491.53;5012458;28;20120;-64
2023/05/25 03:14:48;;;;;;;14.02;7.63;;;;;;;12.12;62.23;102492.56;5020719;28;20386;-64
2023/05/25 03:17:14;;;;;;;13.10;8.00;;;;;;;12.11;62.17;102495.56;5015533;28;20049;-64
2023/05/25 03:19:40;;;;;;;12.35;7.95;;;;;;;12.12;62.23;102502.84;5012841;28;20030;-64
2023/05/25 03:22:05;;;;;;;14.40;8.27;;;;;;;12.11;63.03;102501.97;5011977;28;20056;-64
2023/05/25 03:24:30;;;;;;;19.10;8.52;;;;;;;12.14;62.79;102506.22;5008453;28;20041;-64
2023/05/25 03:26:55;;;;;;;13.27;8.23;;;;;;;12.09;63.04;102500.50;5009724;28;20042;-64
2023/05/25 03:29:21;;;;;;;12.75;8.25;;;;;;;12.07;62.85;102499.88;5010680;28;20100;-64
2023/05/25 03:31:46;;;;;;;11.45;7.53;;;;;;;12.08;62.66;102518.28;5009658;28;20034;-64
2023/05/25 03:34:12;;;;;;;12.63;8.45;;;;;;;12.05;62.30;102519.56;5013454;28;20025;-64
2023/05/25 03:36:37;;;;;;;16.17;8.07;;;;;;;12.01;63.24;102521.94;5018324;28;20073;-64
2023/05/25 03:39:08;;;;;;;16.85;8.55;;;;;;;12.01;63.03;102516.38;5014114;28;20022;-65
2023/05/25 03:41:34;;;;;;;12.40;8.07;;;;;;;12.04;63.01;102524.28;5012407;28;20038;-64
2023/05/25 03:43:59;;;;;;;14.68;9.55;;;;;;;11.96;63.40;102524.53;5008793;28;20045;-64
2023/05/25 03:46:24;;;;;;;15.02;9.20;;;;;;;12.01;63.62;102526.66;5010225;28;20070;-64
2023/05/25 03:48:50;;;;;;;17.02;9.88;;;;;;;11.99;63.65;102521.31;5010490;28;20026;-64
2023/05/25 03:51:15;;;;;;;14.48;9.60;;;;;;;12.03;63.22;102536.50;5010400;28;20808;-65
2023/05/25 03:53:40;;;;;;;12.95;9.70;;;;;;;12.03;63.30;102528.16;5009706;28;20026;-64
2023/05/25 03:56:06;;;;;;;16.55;9.80;;;;;;;12.08;63.07;102530.25;5009941;28;20541;-64
2023/05/25 03:58:31;;;;;;;16.27;10.20;;;;;;;12.09;63.42;102531.09;5008093;28;20033;-64
2023/05/25 04:00:57;;;;;;;15.23;9.25;;;;;;;12.12;63.16;102544.59;5015460;28;20679;-64
2023/05/25 04:03:22;;;;;;;15.15;10.10;;;;;;;12.07;63.44;102541.63;5020266;28;20026;-64
2023/05/25 04:05:47;;;;;;;17.85;9.82;;;;;;;12.08;63.48;102546.09;5025399;28;20358;-64
2023/05/25 04:08:16;;;;;;;21.35;10.63;;;;;;;12.02;63.66;102542.25;5027152;28;20030;-64
2023/05/25 04:10:42;;;;;;;16.33;9.48;;;;;;;12.06;63.80;102546.31;5013642;28;20030;-64
2023/05/25 04:13:07;;;;;;;17.23;10.13;;;;;;;12.07;63.61;102541.63;5009844;28;20048;-65
2023/05/25 04:15:33;;;;;;;14.77;10.15;;;;;;;12.06;63.52;102539.91;5009348;28;20038;-64
2023/05/25 04:17:58;;;;;;;17.20;9.40;;;;;;;12.00;63.61;102541.66;5009717;28;20030;-64
2023/05/25 04:20:24;;;;;;;19.90;9.43;;;;;;;11.96;63.94;102545.94;5018111;28;20112;-64
2023/05/25 04:22:49;;;;;;;13.75;8.93;;;;;;;12.03;63.94;102553.19;5010732;28;20034;-65
2023/05/25 04:25:15;;;;;;;14.80;8.82;;;;;;;12.00;63.95;102553.63;5010523;28;20068;-64
2023/05/25 04:27:41;;;;;;;15.80;9.10;;;;;;;11.99;63.96;102551.06;5009899;28;20026;-64
2023/05/25 04:30:07;;;;;;;14.60;9.38;;;;;;;12.02;63.93;102548.72;5010095;28;20389;-64
2023/05/25 04:32:36;;;;;;;15.18;8.80;;;;;;;12.00;63.97;102556.41;5027147;28;20042;-64
2023/05/25 04:35:02;;;;;;;13.75;9.07;;;;;;;12.08;63.46;102551.66;5010242;28;20369;-64
2023/05/25 04:37:27;;;;;;;15.18;9.27;;;;;;;12.00;63.81;102553.63;5017562;28;20477;-64
2023/05/25 04:39:53;;;;;;;14.65;8.20;;;;;;;12.04;63.84;102559.59;5029688;28;20044;-64
2023/05/25 04:42:18;;;;;;;15.30;8.27;;;;;;;12.02;63.77;102556.19;5029462;28;20033;-64
2023/05/25 04:44:43;;;;;;;13.32;8.48;;;;;;;12.03;63.83;102561.53;5028091;28;20025;-64
2023/05/25 04:47:09;;;;;;;15.73;8.75;;;;;;;12.02;64.23;102543.16;5024403;28;20053;-64
2023/05/25 04:49:35;;;;;;;13.43;8.65;;;;;;;12.03;63.96;102553.19;5013297;28;20037;-64
2023/05/25 04:52:00;;;;;;;12.15;8.02;;;;;;;12.10;64.22;102555.06;5014074;28;20045;-64
2023/05/25 04:54:25;;;;;;;14.98;8.60;;;;;;;12.15;63.80;102556.13;5012555;28;20705;-64
2023/05/25 04:56:50;;;;;;;15.68;8.30;;;;;;;12.15;64.25;102556.13;5013431;28;20026;-64
2023/05/25 04:59:16;;;;;;;14.38;7.85;;;;;;;12.14;64.41;102564.69;5013714;28;20116;-64
2023/05/25 05:01:43;;;;;;;15.60;8.60;;;;;;;12.21;63.76;102560.78;5011153;28;20022;-64
2023/05/25 05:04:09;;;;;;;15.82;8.43;;;;;;;12.22;63.99;102565.31;5032694;28;20511;-64
2023/05/25 05:06:35;;;;;;;15.07;8.73;;;;;;;12.26;63.70;102562.91;5032797;28;20033;-64
2023/05/25 05:09:01;;;;;;;15.00;8.32;;;;;;;12.24;64.23;102577.06;5023214;28;20541;-64
2023/05/25 05:11:27;;;;;;;17.98;7.75;;;;;;;12.32;64.16;102575.09;5014421;28;20109;-64
2023/05/25 05:13:54;;;;;;;14.88;7.70;;;;;;;12.33;63.94;102568.44;5023551;28;20040;-64
2023/05/25 05:16:20;;;;;;;14.98;7.70;;;;;;;12.29;64.50;102574.44;5012804;28;20180;-64
2023/05/25 05:18:45;;;;;;;15.15;7.88;;;;;;;12.29;64.58;102574.44;5009201;28;20033;-64
2023/05/25 05:21:10;;;;;;;13.45;7.78;;;;;;;12.40;64.44;102566.47;5015935;28;20018;-64
2023/05/25 05:23:36;;;;;;;17.38;7.78;;;;;;;12.47;64.03;102576.50;5013298;28;20044;-65
2023/05/25 05:26:03;;;;;;;12.00;7.78;;;;;;;12.48;64.13;102572.63;5012890;28;20768;-65
2023/05/25 05:28:29;;;;;;;13.75;7.28;;;;;;;12.51;64.30;102574.97;5013269;28;20087;-65
2023/05/25 05:30:54;;;;;;;12.80;7.15;;;;;;;12.56;64.16;102574.28;5011445;28;20030;-65
2023/05/25 05:33:19;;;;;;;14.63;7.05;;;;;;;12.58;64.55;102588.03;5013025;28;20040;-65
2023/05/25 05:35:45;;;;;;;14.27;7.68;;;;;;;12.64;64.34;102584.31;5023513;28;20029;-66
2023/05/25 05:38:11;;;;;;;12.52;7.30;;;;;;;12.72;64.05;102593.25;5020544;28;20028;-65
2023/05/25 05:40:36;;;;;;;11.77;6.78;;;;;;;12.80;63.89;102594.06;5013492;28;20164;-65
2023/05/25 05:43:01;;;;;;;14.77;6.95;;;;;;;12.86;64.04;102599.59;5013019;28;20042;-66
2023/05/25 05:45:26;;;;;;;11.77;6.70;;;;;;;12.93;63.80;102596.75;5014365;28;20147;-63
2023/05/25 05:47:52;;;;;;;14.30;6.30;;;;;;;13.01;63.75;102599.28;5015642;28;20037;-65
2023/05/25 05:50:17;;;;;;;14.43;6.78;;;;;;;13.10;63.90;102602.63;5011222;28;20095;-63
2023/05/25 05:52:42;;;;;;;16.65;6.18;;;;;;;13.17;63.60;102612.66;5011777;28;20041;-63
2023/05/25 05:55:08;;;;;;;11.68;6.15;;;;;;;13.23;63.33;102616.47;5010439;28;20498;-63
2023/05/25 05:57:33;;;;;;;13.25;6.22;;;;;;;13.30;63.43;102622.00;5012310;28;20053;-63
2023/05/25 05:59:59;;;;;;;13.77;6.22;;;;;;;13.40;63.28;102614.84;5010748;28;20088;-62
2023/05/25 06:02:24;;;;;;;14.82;6.13;;;;;;;13.44;63.07;102618.88;5012432;28;20029;-64
2023/05/25 06:04:49;;;;;;;11.75;5.75;;;;;;;13.50;62.88;102619.88;5016395;28;20493;-63
2023/05/25 06:07:15;;;;;;;11.85;6.15;;;;;;;13.56;63.02;102626.47;5016629;28;20034;-63
2023/05/25 06:09:40;;;;;;;11.90;5.60;;;;;;;13.58;62.29;102627.09;5012179;28;20026;-63
2023/05/25 06:12:06;;;;;;;18.13;6.38;;;;;;;13.60;62.58;102628.59;5020434;28;20042;-65
2023/05/25 06:14:31;;;;;;;12.50;5.78;;;;;;;13.62;62.45;102629.19;5010728;28;20774;-64
2023/05/25 06:16:57;;;;;;;9.65;5.78;;;;;;;13.70;62.53;102626.09;5009582;28;20076;-64
2023/05/25 06:19:22;;;;;;;12.73;5.63;;;;;;;13.70;62.39;102628.88;5006981;28;20037;-65
2023/05/25 06:21:47;;;;;;;11.15;6.53;;;;;;;13.71;62.70;102629.75;5016742;28;20048;-65
2023/05/25 06:24:14;;;;;;;11.88;6.10;;;;;;;13.74;62.25;102620.91;5013523;28;20028;-64
2023/05/25 06:26:39;;;;;;;10.55;5.70;;;;;;;13.77;61.89;102637.19;5011421;28;20052;-66
2023/05/25 06:29:04;;;;;;;10.93;6.18;;;;;;;13.85;62.14;102634.09;5013716;28;20541;-65
2023/05/25 06:31:30;;;;;;;13.05;5.85;;;;;;;13.95;61.76;102637.22;5013460;28;20040;-65
2023/05/25 06:33:55;;;;;;;12.35;6.65;;;;;;;14.03;61.89;102633.28;5017435;28;20034;-65
2023/05/25 06:36:20;;;;;;;13.75;6.22;;;;;;;14.03;61.61;102643.56;5010639;28;20076;-66
2023/05/25 06:38:46;;;;;;;14.73;6.22;;;;;;;14.00;61.49;102647.69;5011377;28;20042;-65
2023/05/25 06:41:13;;;;;;;11.23;5.75;;;;;;;14.11;61.80;102649.72;5009670;28;20034;-65
2023/05/25 06:43:39;;;;;;;10.57;6.10;;;;;;;14.16;60.67;102649.84;5017303;28;20392;-66
2023/05/25 06:46:04;;;;;;;10.25;5.53;;;;;;;14.21;60.95;102652.78;5013575;28;20025;-66
2023/05/25 06:48:29;;;;;;;14.88;6.15;;;;;;;14.31;60.75;102649.47;5013417;28;20038;-65
2023/05/25 06:50:55;;;;;;;9.02;5.80;;;;;;;14.39;60.74;102663.09;5011429;28;20473;-66
2023/05/25 06:53:20;;;;;;;11.48;5.80;;;;;;;14.35;60.11;102661.88;5012620;28;20381;-66
2023/05/25 06:55:45;;;;;;;10.27;5.63;;;;;;;14.36;59.94;102657.13;5010824;28;20045;-67
2023/05/25 06:58:11;;;;;;;13.05;5.90;;;;;;;14.32;60.45;102661.47;5016199;28;20533;-66
2023/05/25 07:00:36;;;;;;;13.02;5.90;;;;;;;14.27;60.40;102659.41;5010756;28;20037;-66
2023/05/25 07:03:01;;;;;;;17.77;6.20;;;;;;;14.27;60.04;102658.53;5015243;28;20033;-66
2023/05/25 07:05:27;;;;;;;10.40;5.82;;;;;;;14.29;60.34;102659.16;5028013;28;20059;-66
2023/05/25 07:07:52;;;;;;;13.38;6.30;;;;;;;14.37;59.89;102661.63;5028503;28;20022;-67
2023/05/25 07:10:17;;;;;;;14.00;5.57;;;;;;;14.40;59.89;102670.38;5028402;28;20037;-66
2023/05/25 07:12:43;;;;;;;14.02;6.43;;;;;;;14.47;59.78;102676.75;5011590;28;20026;-67
2023/05/25 07:15:09;;;;;;;14.00;5.88;;;;;;;14.45;59.02;102678.91;5014681;28;20117;-67
2023/05/25 07:17:35;;;;;;;11.52;6.50;;;;;;;14.46;59.56;102672.25;5021283;28;20073;-67
2023/05/25 07:20:00;;;;;;;13.98;6.18;;;;;;;14.55;59.78;102666.38;5015186;28;20026;-67
2023/05/25 07:22:26;;;;;;;10.60;5.78;;;;;;;14.65;59.90;102672.25;5020789;28;20504;-67
2023/05/25 07:24:51;;;;;;;15.73;6.28;;;;;;;14.75;59.49;102669.75;5018723;28;20429;-67
2023/05/25 07:27:18;;;;;;;13.20;6.25;;;;;;;14.87;58.63;102678.16;5020073;28;20026;-66
2023/05/25 07:29:43;;;;;;;9.85;6.05;;;;;;;14.96;57.78;102671.13;5012125;28;20057;-66
2023/05/25 07:32:09;;;;;;;13.82;6.80;;;;;;;14.97;57.74;102679.31;5023473;28;20029;-66
2023/05/25 07:34:34;;;;;;;15.18;6.38;;;;;;;15.11;57.23;102671.56;5026137;28;20018;-64
2023/05/25 07:36:59;;;;;;;16.77;6.55;;;;;;;15.17;57.87;102670.59;5014652;28;20036;-64
2023/05/25 07:39:25;;;;;;;14.15;6.60;;;;;;;15.23;57.96;102677.19;5009844;28;20065;-66
2023/05/25 07:41:50;;;;;;;11.30;5.63;;;;;;;15.32;58.25;102675.72;5008777;28;20132;-68
2023/05/25 07:44:16;;;;;;;12.70;5.68;;;;;;;15.23;57.33;102672.44;5008006;28;20080;-64
2023/05/25 07:46:42;;;;;;;20.13;6.38;;;;;;;15.24;56.63;102673.28;5009289;28;20371;-66
2023/05/25 07:49:11;;;;;;;9.35;5.55;;;;;;;15.20;56.59;102675.69;5010097;28;20105;-65
2023/05/25 07:51:37;;;;;;;12.93;5.63;;;;;;;15.18;56.55;102672.31;5008076;28;20393;-65
2023/05/25 07:54:03;;;;;;;13.57;6.25;;;;;;;15.20;56.24;102680.44;5025720;28;20030;-65
2023/05/25 07:56:28;;;;;;;13.98;6.00;;;;;;;15.18;56.93;102686.28;5021098;28;20793;-66
2023/05/25 07:58:53;;;;;;;10.98;6.22;;;;;;;15.22;56.50;102678.28;5013610;28;20408;-65
2023/05/25 08:01:19;;;;;;;11.70;6.03;;;;;;;15.28;56.44;102682.91;5024806;28;20382;-66
2023/05/25 08:03:44;;;;;;;11.50;5.88;;;;;;;15.33;56.53;102685.00;5029096;28;20119;-65
2023/05/25 08:06:09;;;;;;;13.90;6.30;;;;;;;15.38;56.17;102677.56;5029401;28;20017;-66
2023/05/25 08:08:36;;;;;;;13.00;6.55;;;;;;;15.47;56.24;102683.66;5029403;28;20069;-65
2023/05/25 08:11:01;;;;;;;12.68;6.03;;;;;;;15.50;55.46;102688.78;5029254;28;20034;-65
2023/05/25 08:13:27;;;;;;;13.00;6.05;;;;;;;15.55;55.59;102683.31;5028684;28;20083;-65
2023/05/25 08:15:52;;;;;;;12.57;6.55;;;;;;;15.63;55.81;102687.69;5027491;28;20049;-65
2023/05/25 08:18:18;;;;;;;10.93;5.93;;;;;;;15.71;55.33;102687.34;5024254;28;20358;-65
2023/05/25 08:20:43;;;;;;;14.18;6.53;;;;;;;15.77;55.04;102689.19;5028636;28;20512;-65
2023/05/25 08:23:08;;;;;;;11.10;5.68;;;;;;;15.86;54.78;102692.47;5032861;28;20037;-65
2023/05/25 08:25:34;;;;;;;14.88;5.72;;;;;;;15.97;55.18;102690.78;5031547;28;20388;-65
2023/05/25 08:27:59;;;;;;;11.85;5.65;;;;;;;16.07;53.98;102691.00;5033201;28;20037;-65
2023/05/25 08:30:25;;;;;;;10.57;5.57;;;;;;;16.11;53.87;102697.81;5031607;28;20535;-65
2023/05/25 08:32:50;;;;;;;11.43;4.82;;;;;;;16.08;53.33;102687.97;5033004;28;20018;-66
2023/05/25 08:35:16;;;;;;;10.95;5.32;;;;;;;16.00;53.61;102688.34;5018342;28;20037;-65
2023/05/25 08:37:42;;;;;;;8.10;5.13;;;;;;;15.97;53.63;102687.97;5013347;28;20130;-65
2023/05/25 08:40:13;;;;;;;15.95;5.35;;;;;;;16.00;54.18;102701.50;5012450;28;20041;-65
2023/05/25 08:42:44;;;;;;;12.52;5.63;;;;;;;16.08;53.43;102701.97;5012495;28;20029;-65
2023/05/25 08:45:10;;;;;;;9.90;4.57;;;;;;;16.08;53.05;102693.56;5013559;28;20572;-65
2023/05/25 08:47:40;;;;;;;14.48;5.57;;;;;;;16.03;52.98;102699.03;5012382;28;20159;-65
2023/05/25 08:50:11;;;;;;;13.88;5.28;;;;;;;16.09;53.49;102695.25;5012047;28;20032;-65
2023/05/25 08:52:39;;;;;;;13.85;5.07;;;;;;;16.13;53.42;102701.22;5012850;28;20041;-65
2023/05/25 08:55:07;;;;;;;11.00;5.47;;;;;;;16.07;52.89;102707.81;5012608;28;20496;-65
2023/05/25 08:57:48;;;;;;;13.30;5.45;;;;;;;16.02;53.25;102699.28;5012874;28;20104;-65
2023/05/25 09:00:17;;;;;;;11.33;5.40;;;;;;;15.94;53.38;102700.50;5013415;28;20025;-65
2023/05/25 09:02:56;;;;;;;11.35;4.97;;;;;;;15.89;53.54;102712.44;5012453;28;20037;-65
2023/05/25 09:05:22;;;;;;;9.23;4.70;;;;;;;15.85;53.76;102708.44;5012729;28;20030;-66
2023/05/25 09:07:50;;;;;;;10.23;4.80;;;;;;;15.84;53.87;102703.94;5011141;28;20370;-65
2023/05/25 09:10:16;;;;;;;13.10;4.78;;;;;;;15.75;53.52;102710.13;5018914;28;20030;-65
2023/05/25 09:12:42;;;;;;;12.18;4.53;;;;;;;15.73;53.94;102707.59;5012934;28;20362;-66
2023/05/25 09:15:11;;;;;;;16.08;5.03;;;;;;;15.70;53.82;102710.84;5012649;28;20033;-65
2023/05/25 09:17:37;;;;;;;10.70;5.25;;;;;;;15.68;53.96;102708.31;5024969;28;20045;-65
2023/05/25 09:20:03;;;;;;;15.27;4.75;;;;;;;15.66;53.96;102706.84;5029170;28;20422;-65
2023/05/25 09:22:28;;;;;;;12.13;4.72;;;;;;;15.66;54.51;102704.88;5012164;28;20072;-66
2023/05/25 09:24:53;;;;;;;12.43;4.88;;;;;;;15.66;54.00;102710.50;5012499;28;20060;-65
2023/05/25 09:27:21;;;;;;;8.95;4.55;;;;;;;15.64;53.82;102703.38;5021641;28;20036;-67
2023/05/25 09:29:50;;;;;;;12.57;4.28;;;;;;;15.64;53.73;102712.66;5030884;28;20034;-66
2023/05/25 09:32:17;;;;;;;12.15;4.90;;;;;;;15.59;54.01;102714.47;5032169;28;20049;-66
2023/05/25 09:34:46;;;;;;;11.93;5.05;;;;;;;15.57;54.45;102714.72;5029962;28;20040;-66
2023/05/25 09:37:14;;;;;;;10.15;4.32;;;;;;;15.59;54.36;102720.06;5031612;28;20067;-65
2023/05/25 09:39:41;;;;;;;10.30;4.18;;;;;;;15.59;53.97;102717.25;5029577;28;20476;-65
2023/05/25 09:42:06;;;;;;;15.40;4.88;;;;;;;15.59;54.29;102717.25;5011695;28;20805;-65
2023/05/25 09:44:32;;;;;;;17.02;5.05;;;;;;;15.64;54.31;102720.19;5015124;28;20034;-65
2023/05/25 09:46:57;;;;;;;13.85;4.40;;;;;;;15.66;54.52;102721.69;5016427;28;20029;-66
2023/05/25 09:49:22;;;;;;;12.35;4.43;;;;;;;15.68;54.17;102724.25;5028969;28;20034;-66
2023/05/25 09:51:48;;;;;;;11.82;3.80;;;;;;;15.66;53.74;102724.47;5016760;28;20424;-67
2023/05/25 09:54:13;;;;;;;9.65;4.20;;;;;;;15.67;53.86;102714.97;5011890;28;20449;-65
2023/05/25 09:56:40;;;;;;;12.13;4.20;;;;;;;15.66;53.48;102715.25;5017308;28;20038;-66
2023/05/25 09:59:06;;;;;;;12.00;4.25;;;;;;;15.67;53.13;102720.59;5009651;28;20037;-66
2023/05/25 10:01:32;;;;;;;10.15;3.63;;;;;;;15.65;53.08;102728.38;5012046;28;20397;-65
2023/05/25 10:03:58;;;;;;;12.45;3.70;;;;;;;15.66;53.16;102729.22;5012316;28;20040;-66
2023/05/25 10:06:25;;;;;;;8.95;4.00;;;;;;;15.65;53.03;102731.19;5016641;28;20080;-66
2023/05/25 10:08:51;;;;;;;14.02;4.72;;;;;;;15.64;53.31;102734.16;5031295;28;20481;-65
2023/05/25 10:11:17;;;;;;;12.65;4.45;;;;;;;15.66;54.03;102727.28;5024171;28;20092;-67
2023/05/25 10:13:44;;;;;;;12.00;4.40;;;;;;;15.67;54.12;102726.19;5010027;28;20507;-67
2023/05/25 10:16:16;;;;;;;14.85;4.70;;;;;;;15.79;54.42;102730.94;5019519;28;20124;-67
2023/05/25 10:18:45;;;;;;;;;;;;;;;15.90;54.01;102719.75;5022863;28;20376;-65
2023/05/25 10:21:13;;;;;;;14.00;4.68;;;;;;;15.85;53.78;102735.59;5022363;28;19917;-65
2023/05/25 10:23:44;;;;;;;10.85;4.28;;;;;;;15.84;53.26;102729.13;5013224;28;20032;-66
2023/05/25 10:26:15;;;;;;;11.32;4.43;;;;;;;15.84;53.34;102731.94;5013385;28;20033;-66
2023/05/25 10:28:43;;;;;;;12.82;4.10;;;;;;;15.88;53.27;102730.34;5019725;28;20033;-66
2023/05/25 10:31:09;;;;;;;10.68;4.50;;;;;;;15.86;52.88;102734.47;5018677;28;20504;-66
2023/05/25 10:33:36;;;;;;;12.90;4.57;;;;;;;15.88;53.23;102727.56;5018497;28;20144;-65
2023/05/25 10:36:02;;;;;;;12.02;4.40;;;;;;;15.94;53.68;102723.75;5028069;28;20049;-65
2023/05/25 10:38:30;;;;;;;10.75;3.92;;;;;;;15.93;53.02;102735.22;5011043;28;20026;-65
2023/05/25 10:40:58;;;;;;;11.98;5.00;;;;;;;15.93;52.68;102738.03;5011572;28;20061;-65
2023/05/25 10:43:24;;;;;;;10.10;4.10;;;;;;;15.89;52.27;102736.81;5009130;28;20432;-64
2023/05/25 10:45:49;;;;;;;13.43;4.40;;;;;;;15.90;52.83;102746.91;5024166;28;20026;-65
2023/05/25 10:48:14;;;;;;;13.98;3.70;;;;;;;15.89;52.09;102732.06;5028322;28;20033;-65
2023/05/25 10:50:40;;;;;;;12.40;4.35;;;;;;;15.92;51.50;102731.56;5013847;28;20029;-64
2023/05/25 10:53:07;;;;;;;13.82;4.00;;;;;;;15.97;51.81;102736.44;5019899;28;20026;-66
2023/05/25 10:56:03;;;;;;;15.68;4.82;;;;;;;16.05;52.12;102722.06;5008421;28;20022;-65
2023/05/25 10:58:29;;;;;;;13.00;4.10;;;;;;;16.08;51.09;102724.38;5015473;28;20038;-66
2023/05/25 11:01:09;;;;;;;12.80;4.40;;;;;;;16.10;51.81;102724.97;5030353;28;20025;-66
2023/05/25 11:04:16;;;;;;;12.10;5.07;;;;;;;16.16;51.58;102738.00;5011058;28;20145;-66
2023/05/25 11:06:47;;;;;;;9.38;4.03;;;;;;;16.13;51.41;102729.25;5022352;28;20118;-62
2023/05/25 11:09:27;;;;;;;8.82;4.03;;;;;;;16.12;51.53;102727.56;5017127;28;20063;-65
2023/05/25 11:11:54;;;;;;;9.70;4.03;;;;;;;16.25;50.98;102726.44;5027548;28;20028;-65
2023/05/25 11:14:19;;;;;;;10.30;4.25;;;;;;;16.35;50.57;102716.31;5028445;28;20153;-65